CheckWX is a tool to help pilots better visualize weather data.  It is not intended as a substitute for an official pre-flight weather briefing.

21:38:25 UTC

VTSH TAF
Songkhla Airport
Thailand
TAF VTSH 201700Z 2018/2118 14003KT 8000 FEW020 BECMG 2102/2104 06012KT BECMG 2116/2118 13004KT

Mar-20@
18:00 UTC

Mar-20 @ 18:00 UTC

Mar-21@
02:00 UTC

Mar-21 @ 02:00 UTC

TAF VTSH 201700Z 2018/2118 14003KT 8000 FEW020
Wind
  • 140° at 3 KTS
Cloud Levels
  • Few at 2,000' AGL

Mar-21@
02:00 UTC

Mar-21 @ 02:00 UTC

Mar-21@
16:00 UTC

Mar-21 @ 16:00 UTC

BECMG 2102/2104 06012KT

Becoming

Becoming Conditions expected by Thu, Mar 21, 2019 @ 04:00 UTC

Wind
  • 060° at 12 KTS
Cloud Levels
  • Few at 2,000' AGL

Mar-21@
16:00 UTC

Mar-21 @ 16:00 UTC

Mar-21@
18:00 UTC

Mar-21 @ 18:00 UTC

BECMG 2116/2118 13004KT

Becoming

Becoming Conditions expected by Thu, Mar 21, 2019 @ 18:00 UTC

Wind
  • 130° at 4 KTS
Cloud Levels
  • Few at 2,000' AGL